sensor_id;sensor_type;location;lat;lon;timestamp;P1;durP1;ratioP1;P2;durP2;ratioP2
7707;SDS011;3896;48.758;8.888;2023-05-14T00:01:23;5.10;;;4.60;;
7707;SDS011;3896;48.758;8.888;2023-05-14T00:03:49;7.00;;;5.47;;
7707;SDS011;3896;48.758;8.888;2023-05-14T00:06:14;6.87;;;5.13;;
7707;SDS011;3896;48.758;8.888;2023-05-14T00:08:40;6.23;;;4.77;;
7707;SDS011;3896;48.758;8.888;2023-05-14T00:11:05;8.47;;;5.90;;
7707;SDS011;3896;48.758;8.888;2023-05-14T00:13:32;6.17;;;5.57;;
7707;SDS011;3896;48.758;8.888;2023-05-14T00:15:59;5.77;;;5.00;;
7707;SDS011;3896;48.758;8.888;2023-05-14T00:18:24;4.90;;;4.50;;
7707;SDS011;3896;48.758;8.888;2023-05-14T00:20:50;6.00;;;5.23;;
7707;SDS011;3896;48.758;8.888;2023-05-14T00:23:18;6.63;;;5.97;;
7707;SDS011;3896;48.758;8.888;2023-05-14T00:25:47;7.80;;;5.77;;
7707;SDS011;3896;48.758;8.888;2023-05-14T00:28:12;6.93;;;5.63;;
7707;SDS011;3896;48.758;8.888;2023-05-14T00:30:38;6.23;;;5.63;;
7707;SDS011;3896;48.758;8.888;2023-05-14T00:33:04;7.10;;;5.47;;
7707;SDS011;3896;48.758;8.888;2023-05-14T00:35:30;6.60;;;5.60;;
7707;SDS011;3896;48.758;8.888;2023-05-14T00:37:56;6.07;;;5.00;;
7707;SDS011;3896;48.758;8.888;2023-05-14T00:40:24;7.90;;;5.50;;
7707;SDS011;3896;48.758;8.888;2023-05-14T00:42:51;6.53;;;5.10;;
7707;SDS011;3896;48.758;8.888;2023-05-14T00:45:16;6.63;;;5.83;;
7707;SDS011;3896;48.758;8.888;2023-05-14T00:47:42;7.00;;;5.40;;
7707;SDS011;3896;48.758;8.888;2023-05-14T00:50:08;5.83;;;5.23;;
7707;SDS011;3896;48.758;8.888;2023-05-14T00:52:35;5.53;;;4.83;;
7707;SDS011;3896;48.758;8.888;2023-05-14T00:55:02;6.50;;;5.37;;
7707;SDS011;3896;48.758;8.888;2023-05-14T00:57:30;7.10;;;5.77;;
7707;SDS011;3896;48.758;8.888;2023-05-14T00:59:56;5.60;;;5.10;;
7707;SDS011;3896;48.758;8.888;2023-05-14T01:02:22;8.37;;;5.90;;
7707;SDS011;3896;48.758;8.888;2023-05-14T01:04:47;5.23;;;4.73;;
7707;SDS011;3896;48.758;8.888;2023-05-14T01:15:29;6.40;;;4.80;;
7707;SDS011;3896;48.758;8.888;2023-05-14T01:18:03;6.50;;;5.10;;
7707;SDS011;3896;48.758;8.888;2023-05-14T01:20:31;4.90;;;4.40;;
7707;SDS011;3896;48.758;8.888;2023-05-14T01:22:56;5.73;;;5.00;;
7707;SDS011;3896;48.758;8.888;2023-05-14T01:25:22;5.20;;;4.73;;
7707;SDS011;3896;48.758;8.888;2023-05-14T01:30:35;5.20;;;4.27;;
7707;SDS011;3896;48.758;8.888;2023-05-14T01:33:15;6.17;;;4.77;;
7707;SDS011;3896;48.758;8.888;2023-05-14T01:35:42;5.57;;;5.07;;
7707;SDS011;3896;48.758;8.888;2023-05-14T01:38:09;5.27;;;4.77;;
7707;SDS011;3896;48.758;8.888;2023-05-14T01:40:36;5.23;;;4.73;;
7707;SDS011;3896;48.758;8.888;2023-05-14T01:43:03;7.90;;;4.70;;
7707;SDS011;3896;48.758;8.888;2023-05-14T01:45:29;6.13;;;4.50;;
7707;SDS011;3896;48.758;8.888;2023-05-14T01:47:55;5.97;;;5.03;;
7707;SDS011;3896;48.758;8.888;2023-05-14T01:50:21;6.03;;;4.63;;
7707;SDS011;3896;48.758;8.888;2023-05-14T01:52:47;4.83;;;4.33;;
7707;SDS011;3896;48.758;8.888;2023-05-14T01:55:13;5.90;;;4.33;;
7707;SDS011;3896;48.758;8.888;2023-05-14T01:57:39;5.40;;;4.90;;
7707;SDS011;3896;48.758;8.888;2023-05-14T02:00:05;5.37;;;4.87;;
7707;SDS011;3896;48.758;8.888;2023-05-14T02:02:31;5.30;;;4.80;;
7707;SDS011;3896;48.758;8.888;2023-05-14T02:04:56;6.43;;;4.87;;
7707;SDS011;3896;48.758;8.888;2023-05-14T02:07:22;4.83;;;4.43;;
7707;SDS011;3896;48.758;8.888;2023-05-14T02:09:48;5.53;;;4.90;;
7707;SDS011;3896;48.758;8.888;2023-05-14T02:12:13;5.03;;;4.50;;
7707;SDS011;3896;48.758;8.888;2023-05-14T02:14:39;5.87;;;4.60;;
7707;SDS011;3896;48.758;8.888;2023-05-14T02:17:04;5.77;;;4.83;;
7707;SDS011;3896;48.758;8.888;2023-05-14T02:19:30;5.03;;;4.40;;
7707;SDS011;3896;48.758;8.888;2023-05-14T02:21:55;6.23;;;5.17;;
7707;SDS011;3896;48.758;8.888;2023-05-14T02:24:21;5.37;;;4.83;;
7707;SDS011;3896;48.758;8.888;2023-05-14T02:26:46;5.20;;;4.70;;
7707;SDS011;3896;48.758;8.888;2023-05-14T02:29:12;5.90;;;5.23;;
7707;SDS011;3896;48.758;8.888;2023-05-14T02:31:37;5.43;;;4.53;;
7707;SDS011;3896;48.758;8.888;2023-05-14T02:34:03;7.40;;;6.70;;
7707;SDS011;3896;48.758;8.888;2023-05-14T02:36:32;5.90;;;4.90;;
7707;SDS011;3896;48.758;8.888;2023-05-14T02:38:58;4.77;;;4.27;;
7707;SDS011;3896;48.758;8.888;2023-05-14T02:41:25;3.83;;;3.53;;
7707;SDS011;3896;48.758;8.888;2023-05-14T02:43:51;4.50;;;4.10;;
7707;SDS011;3896;48.758;8.888;2023-05-14T02:46:17;7.93;;;5.60;;
7707;SDS011;3896;48.758;8.888;2023-05-14T02:48:43;5.77;;;4.40;;
7707;SDS011;3896;48.758;8.888;2023-05-14T02:51:09;5.07;;;4.37;;
7707;SDS011;3896;48.758;8.888;2023-05-14T02:53:34;4.93;;;4.43;;
7707;SDS011;3896;48.758;8.888;2023-05-14T02:56:00;4.97;;;4.47;;
7707;SDS011;3896;48.758;8.888;2023-05-14T02:58:26;4.50;;;4.10;;
7707;SDS011;3896;48.758;8.888;2023-05-14T03:00:51;4.70;;;4.20;;
7707;SDS011;3896;48.758;8.888;2023-05-14T03:03:17;4.97;;;4.43;;
7707;SDS011;3896;48.758;8.888;2023-05-14T03:05:43;4.03;;;3.67;;
7707;SDS011;3896;48.758;8.888;2023-05-14T03:08:09;4.90;;;4.40;;
7707;SDS011;3896;48.758;8.888;2023-05-14T03:10:34;6.20;;;4.43;;
7707;SDS011;3896;48.758;8.888;2023-05-14T03:13:00;5.53;;;4.90;;
7707;SDS011;3896;48.758;8.888;2023-05-14T03:15:25;5.67;;;4.53;;
7707;SDS011;3896;48.758;8.888;2023-05-14T03:17:51;5.07;;;4.53;;
7707;SDS011;3896;48.758;8.888;2023-05-14T03:20:16;5.33;;;4.77;;
7707;SDS011;3896;48.758;8.888;2023-05-14T03:22:42;5.40;;;4.40;;
7707;SDS011;3896;48.758;8.888;2023-05-14T03:25:08;5.23;;;4.40;;
7707;SDS011;3896;48.758;8.888;2023-05-14T03:27:33;5.23;;;4.50;;
7707;SDS011;3896;48.758;8.888;2023-05-14T03:29:59;6.07;;;4.80;;
7707;SDS011;3896;48.758;8.888;2023-05-14T03:32:25;5.20;;;4.70;;
7707;SDS011;3896;48.758;8.888;2023-05-14T03:34:50;5.93;;;4.77;;
7707;SDS011;3896;48.758;8.888;2023-05-14T03:37:16;5.20;;;4.67;;
7707;SDS011;3896;48.758;8.888;2023-05-14T03:39:41;5.63;;;4.93;;
7707;SDS011;3896;48.758;8.888;2023-05-14T03:42:07;4.97;;;4.57;;
7707;SDS011;3896;48.758;8.888;2023-05-14T03:44:32;5.33;;;4.60;;
7707;SDS011;3896;48.758;8.888;2023-05-14T03:46:58;5.63;;;5.10;;
7707;SDS011;3896;48.758;8.888;2023-05-14T03:49:24;7.77;;;4.93;;
7707;SDS011;3896;48.758;8.888;2023-05-14T03:51:49;5.17;;;4.67;;
7707;SDS011;3896;48.758;8.888;2023-05-14T03:54:15;5.67;;;4.97;;
7707;SDS011;3896;48.758;8.888;2023-05-14T03:56:40;6.23;;;5.57;;
7707;SDS011;3896;48.758;8.888;2023-05-14T03:59:06;5.80;;;5.20;;
7707;SDS011;3896;48.758;8.888;2023-05-14T04:01:31;5.87;;;5.03;;
7707;SDS011;3896;48.758;8.888;2023-05-14T04:03:57;6.33;;;4.97;;
7707;SDS011;3896;48.758;8.888;2023-05-14T04:06:23;7.10;;;5.40;;
7707;SDS011;3896;48.758;8.888;2023-05-14T04:08:48;5.97;;;5.40;;
7707;SDS011;3896;48.758;8.888;2023-05-14T04:11:14;7.07;;;5.40;;
7707;SDS011;3896;48.758;8.888;2023-05-14T04:13:39;6.67;;;6.07;;
7707;SDS011;3896;48.758;8.888;2023-05-14T04:16:05;8.53;;;5.80;;
7707;SDS011;3896;48.758;8.888;2023-05-14T04:18:30;7.73;;;5.73;;
7707;SDS011;3896;48.758;8.888;2023-05-14T04:20:59;6.90;;;5.67;;
7707;SDS011;3896;48.758;8.888;2023-05-14T04:23:24;7.97;;;6.30;;
7707;SDS011;3896;48.758;8.888;2023-05-14T04:25:50;8.97;;;6.87;;
7707;SDS011;3896;48.758;8.888;2023-05-14T04:28:16;7.70;;;5.50;;
7707;SDS011;3896;48.758;8.888;2023-05-14T04:30:41;7.70;;;5.40;;
7707;SDS011;3896;48.758;8.888;2023-05-14T04:33:07;7.03;;;6.03;;
7707;SDS011;3896;48.758;8.888;2023-05-14T04:35:32;7.03;;;5.50;;
7707;SDS011;3896;48.758;8.888;2023-05-14T04:37:58;8.07;;;6.33;;
7707;SDS011;3896;48.758;8.888;2023-05-14T04:40:23;8.33;;;5.70;;
7707;SDS011;3896;48.758;8.888;2023-05-14T04:42:49;8.83;;;5.90;;
7707;SDS011;3896;48.758;8.888;2023-05-14T04:45:14;7.73;;;5.90;;
7707;SDS011;3896;48.758;8.888;2023-05-14T04:47:40;7.17;;;6.40;;
7707;SDS011;3896;48.758;8.888;2023-05-14T04:50:06;8.13;;;5.90;;
7707;SDS011;3896;48.758;8.888;2023-05-14T04:52:33;8.70;;;6.63;;
7707;SDS011;3896;48.758;8.888;2023-05-14T04:54:59;7.73;;;6.57;;
7707;SDS011;3896;48.758;8.888;2023-05-14T04:57:25;9.13;;;6.47;;
7707;SDS011;3896;48.758;8.888;2023-05-14T04:59:51;8.60;;;7.00;;
7707;SDS011;3896;48.758;8.888;2023-05-14T05:02:16;7.63;;;6.37;;
7707;SDS011;3896;48.758;8.888;2023-05-14T05:04:42;7.97;;;6.40;;
7707;SDS011;3896;48.758;8.888;2023-05-14T05:07:07;10.37;;;8.63;;
7707;SDS011;3896;48.758;8.888;2023-05-14T05:09:33;15.23;;;10.47;;
7707;SDS011;3896;48.758;8.888;2023-05-14T05:11:59;13.73;;;8.13;;
7707;SDS011;3896;48.758;8.888;2023-05-14T05:14:25;11.10;;;7.93;;
7707;SDS011;3896;48.758;8.888;2023-05-14T05:16:51;9.70;;;7.27;;
7707;SDS011;3896;48.758;8.888;2023-05-14T05:19:16;7.20;;;6.50;;
7707;SDS011;3896;48.758;8.888;2023-05-14T05:21:42;7.93;;;6.33;;
7707;SDS011;3896;48.758;8.888;2023-05-14T05:24:08;10.37;;;6.93;;
7707;SDS011;3896;48.758;8.888;2023-05-14T05:26:33;7.17;;;6.00;;
7707;SDS011;3896;48.758;8.888;2023-05-14T05:29:01;8.57;;;6.90;;
7707;SDS011;3896;48.758;8.888;2023-05-14T05:31:29;9.00;;;6.70;;
7707;SDS011;3896;48.758;8.888;2023-05-14T05:33:56;9.57;;;6.60;;
7707;SDS011;3896;48.758;8.888;2023-05-14T05:36:22;10.60;;;7.37;;
7707;SDS011;3896;48.758;8.888;2023-05-14T05:38:48;8.87;;;6.57;;
7707;SDS011;3896;48.758;8.888;2023-05-14T05:41:14;8.13;;;6.67;;
7707;SDS011;3896;48.758;8.888;2023-05-14T05:43:39;6.57;;;5.80;;
7707;SDS011;3896;48.758;8.888;2023-05-14T05:46:05;8.20;;;6.73;;
7707;SDS011;3896;48.758;8.888;2023-05-14T05:48:31;10.20;;;7.00;;
7707;SDS011;3896;48.758;8.888;2023-05-14T05:50:56;7.07;;;6.17;;
7707;SDS011;3896;48.758;8.888;2023-05-14T05:53:22;9.23;;;6.87;;
7707;SDS011;3896;48.758;8.888;2023-05-14T05:55:47;9.37;;;6.67;;
7707;SDS011;3896;48.758;8.888;2023-05-14T05:58:15;8.17;;;6.63;;
7707;SDS011;3896;48.758;8.888;2023-05-14T06:00:44;8.87;;;6.43;;
7707;SDS011;3896;48.758;8.888;2023-05-14T06:03:10;7.67;;;6.13;;
7707;SDS011;3896;48.758;8.888;2023-05-14T06:05:37;9.40;;;6.70;;
7707;SDS011;3896;48.758;8.888;2023-05-14T06:08:03;6.53;;;5.83;;
7707;SDS011;3896;48.758;8.888;2023-05-14T06:10:29;8.60;;;6.43;;
7707;SDS011;3896;48.758;8.888;2023-05-14T06:12:54;8.30;;;6.77;;
7707;SDS011;3896;48.758;8.888;2023-05-14T06:15:20;9.17;;;7.17;;
7707;SDS011;3896;48.758;8.888;2023-05-14T06:17:45;7.97;;;6.70;;
7707;SDS011;3896;48.758;8.888;2023-05-14T06:20:11;11.33;;;7.30;;
7707;SDS011;3896;48.758;8.888;2023-05-14T06:22:37;9.07;;;7.03;;
7707;SDS011;3896;48.758;8.888;2023-05-14T06:25:02;10.17;;;7.23;;
7707;SDS011;3896;48.758;8.888;2023-05-14T06:27:28;8.50;;;7.23;;
7707;SDS011;3896;48.758;8.888;2023-05-14T06:29:54;10.23;;;6.97;;
7707;SDS011;3896;48.758;8.888;2023-05-14T06:32:19;9.07;;;7.13;;
7707;SDS011;3896;48.758;8.888;2023-05-14T06:34:45;8.20;;;6.73;;
7707;SDS011;3896;48.758;8.888;2023-05-14T06:37:10;8.37;;;6.77;;
7707;SDS011;3896;48.758;8.888;2023-05-14T06:39:36;9.13;;;7.03;;
7707;SDS011;3896;48.758;8.888;2023-05-14T06:42:03;9.07;;;6.90;;
7707;SDS011;3896;48.758;8.888;2023-05-14T06:44:29;8.30;;;6.37;;
7707;SDS011;3896;48.758;8.888;2023-05-14T06:46:54;11.27;;;7.20;;
7707;SDS011;3896;48.758;8.888;2023-05-14T06:49:21;9.20;;;6.70;;
7707;SDS011;3896;48.758;8.888;2023-05-14T06:51:46;8.33;;;7.10;;
7707;SDS011;3896;48.758;8.888;2023-05-14T06:54:12;10.20;;;7.30;;
7707;SDS011;3896;48.758;8.888;2023-05-14T06:56:37;9.80;;;7.07;;
7707;SDS011;3896;48.758;8.888;2023-05-14T06:59:03;9.10;;;7.70;;
7707;SDS011;3896;48.758;8.888;2023-05-14T07:01:29;7.23;;;6.53;;
7707;SDS011;3896;48.758;8.888;2023-05-14T07:03:54;9.23;;;6.90;;
7707;SDS011;3896;48.758;8.888;2023-05-14T07:06:20;10.90;;;7.27;;
7707;SDS011;3896;48.758;8.888;2023-05-14T07:08:46;9.23;;;6.87;;
7707;SDS011;3896;48.758;8.888;2023-05-14T07:11:12;8.93;;;7.50;;
7707;SDS011;3896;48.758;8.888;2023-05-14T07:13:38;9.73;;;7.57;;
7707;SDS011;3896;48.758;8.888;2023-05-14T07:16:05;10.80;;;7.83;;
7707;SDS011;3896;48.758;8.888;2023-05-14T07:18:31;9.10;;;7.80;;
7707;SDS011;3896;48.758;8.888;2023-05-14T07:20:56;7.07;;;6.23;;
7707;SDS011;3896;48.758;8.888;2023-05-14T07:23:22;12.60;;;6.93;;
7707;SDS011;3896;48.758;8.888;2023-05-14T07:25:47;8.93;;;7.50;;
7707;SDS011;3896;48.758;8.888;2023-05-14T07:28:13;9.20;;;7.43;;
7707;SDS011;3896;48.758;8.888;2023-05-14T07:30:38;7.57;;;5.70;;
7707;SDS011;3896;48.758;8.888;2023-05-14T07:33:04;6.93;;;5.57;;
7707;SDS011;3896;48.758;8.888;2023-05-14T07:35:30;8.97;;;7.33;;
7707;SDS011;3896;48.758;8.888;2023-05-14T07:37:55;8.30;;;7.07;;
7707;SDS011;3896;48.758;8.888;2023-05-14T07:40:21;9.07;;;7.20;;
7707;SDS011;3896;48.758;8.888;2023-05-14T07:42:48;7.23;;;6.50;;
7707;SDS011;3896;48.758;8.888;2023-05-14T07:45:14;8.30;;;7.00;;
7707;SDS011;3896;48.758;8.888;2023-05-14T07:47:40;7.20;;;6.37;;
7707;SDS011;3896;48.758;8.888;2023-05-14T07:50:06;9.27;;;7.50;;
7707;SDS011;3896;48.758;8.888;2023-05-14T07:52:32;9.30;;;6.93;;
7707;SDS011;3896;48.758;8.888;2023-05-14T07:54:57;10.33;;;6.93;;
7707;SDS011;3896;48.758;8.888;2023-05-14T07:57:23;9.40;;;7.30;;
7707;SDS011;3896;48.758;8.888;2023-05-14T07:59:50;7.80;;;6.73;;
7707;SDS011;3896;48.758;8.888;2023-05-14T08:02:15;9.60;;;7.40;;
7707;SDS011;3896;48.758;8.888;2023-05-14T08:04:41;10.80;;;7.73;;
7707;SDS011;3896;48.758;8.888;2023-05-14T08:07:07;8.30;;;7.23;;
7707;SDS011;3896;48.758;8.888;2023-05-14T08:09:33;8.83;;;7.03;;
7707;SDS011;3896;48.758;8.888;2023-05-14T08:11:58;8.97;;;6.60;;
7707;SDS011;3896;48.758;8.888;2023-05-14T08:14:24;8.43;;;6.73;;
7707;SDS011;3896;48.758;8.888;2023-05-14T08:16:49;7.63;;;6.53;;
7707;SDS011;3896;48.758;8.888;2023-05-14T08:19:15;8.53;;;6.97;;
7707;SDS011;3896;48.758;8.888;2023-05-14T08:21:41;7.30;;;6.50;;
7707;SDS011;3896;48.758;8.888;2023-05-14T08:24:06;8.50;;;6.70;;
7707;SDS011;3896;48.758;8.888;2023-05-14T08:26:32;7.67;;;6.47;;
7707;SDS011;3896;48.758;8.888;2023-05-14T08:28:58;8.00;;;6.70;;
7707;SDS011;3896;48.758;8.888;2023-05-14T08:31:23;7.60;;;6.60;;
7707;SDS011;3896;48.758;8.888;2023-05-14T08:33:49;7.57;;;5.73;;
7707;SDS011;3896;48.758;8.888;2023-05-14T08:36:14;8.53;;;6.10;;
7707;SDS011;3896;48.758;8.888;2023-05-14T08:38:40;6.73;;;5.57;;
7707;SDS011;3896;48.758;8.888;2023-05-14T08:41:06;8.07;;;5.97;;
7707;SDS011;3896;48.758;8.888;2023-05-14T08:43:43;8.77;;;6.83;;
7707;SDS011;3896;48.758;8.888;2023-05-14T08:46:17;7.03;;;6.30;;
7707;SDS011;3896;48.758;8.888;2023-05-14T08:48:48;7.30;;;5.97;;
7707;SDS011;3896;48.758;8.888;2023-05-14T08:51:24;7.73;;;6.07;;
7707;SDS011;3896;48.758;8.888;2023-05-14T08:53:51;7.43;;;6.17;;
7707;SDS011;3896;48.758;8.888;2023-05-14T08:56:17;7.13;;;6.30;;
7707;SDS011;3896;48.758;8.888;2023-05-14T08:58:43;7.77;;;6.90;;
7707;SDS011;3896;48.758;8.888;2023-05-14T09:01:09;7.83;;;6.47;;
7707;SDS011;3896;48.758;8.888;2023-05-14T09:03:35;7.90;;;6.77;;
7707;SDS011;3896;48.758;8.888;2023-05-14T09:06:01;8.53;;;7.17;;
7707;SDS011;3896;48.758;8.888;2023-05-14T09:08:28;8.93;;;6.80;;
7707;SDS011;3896;48.758;8.888;2023-05-14T09:10:54;8.57;;;7.50;;
7707;SDS011;3896;48.758;8.888;2023-05-14T09:13:20;9.93;;;7.17;;
7707;SDS011;3896;48.758;8.888;2023-05-14T09:15:45;7.37;;;6.50;;
7707;SDS011;3896;48.758;8.888;2023-05-14T09:18:12;7.13;;;5.90;;
7707;SDS011;3896;48.758;8.888;2023-05-14T09:20:38;7.50;;;6.50;;
7707;SDS011;3896;48.758;8.888;2023-05-14T09:23:03;7.53;;;5.50;;
7707;SDS011;3896;48.758;8.888;2023-05-14T09:25:30;7.07;;;6.30;;
7707;SDS011;3896;48.758;8.888;2023-05-14T09:27:56;7.53;;;5.90;;
7707;SDS011;3896;48.758;8.888;2023-05-14T09:30:22;7.57;;;6.13;;
7707;SDS011;3896;48.758;8.888;2023-05-14T09:32:49;9.07;;;6.33;;
7707;SDS011;3896;48.758;8.888;2023-05-14T09:35:18;6.80;;;5.93;;
7707;SDS011;3896;48.758;8.888;2023-05-14T09:37:46;6.50;;;5.30;;
7707;SDS011;3896;48.758;8.888;2023-05-14T09:40:13;6.23;;;5.60;;
7707;SDS011;3896;48.758;8.888;2023-05-14T09:42:39;6.83;;;6.13;;
7707;SDS011;3896;48.758;8.888;2023-05-14T09:45:08;6.10;;;5.10;;
7707;SDS011;3896;48.758;8.888;2023-05-14T09:47:35;7.27;;;5.53;;
7707;SDS011;3896;48.758;8.888;2023-05-14T09:50:01;7.93;;;5.67;;
7707;SDS011;3896;48.758;8.888;2023-05-14T09:52:27;6.70;;;5.23;;
7707;SDS011;3896;48.758;8.888;2023-05-14T09:54:53;5.80;;;5.20;;
7707;SDS011;3896;48.758;8.888;2023-05-14T09:57:19;5.33;;;4.83;;
7707;SDS011;3896;48.758;8.888;2023-05-14T09:59:45;6.77;;;5.53;;
7707;SDS011;3896;48.758;8.888;2023-05-14T10:02:29;5.27;;;4.77;;
7707;SDS011;3896;48.758;8.888;2023-05-14T10:05:01;6.73;;;5.27;;
7707;SDS011;3896;48.758;8.888;2023-05-14T10:07:32;5.93;;;5.23;;
7707;SDS011;3896;48.758;8.888;2023-05-14T10:10:12;5.37;;;4.87;;
7707;SDS011;3896;48.758;8.888;2023-05-14T10:12:40;7.60;;;5.80;;
7707;SDS011;3896;48.758;8.888;2023-05-14T10:15:18;7.73;;;6.53;;
7707;SDS011;3896;48.758;8.888;2023-05-14T10:17:48;6.53;;;5.60;;
7707;SDS011;3896;48.758;8.888;2023-05-14T10:20:20;8.03;;;6.10;;
7707;SDS011;3896;48.758;8.888;2023-05-14T10:22:47;7.13;;;6.37;;
7707;SDS011;3896;48.758;8.888;2023-05-14T10:25:12;7.20;;;5.90;;
7707;SDS011;3896;48.758;8.888;2023-05-14T10:27:38;5.30;;;4.83;;
7707;SDS011;3896;48.758;8.888;2023-05-14T10:30:05;5.80;;;5.20;;
7707;SDS011;3896;48.758;8.888;2023-05-14T10:32:35;5.13;;;4.63;;
7707;SDS011;3896;48.758;8.888;2023-05-14T10:35:06;5.00;;;4.60;;
7707;SDS011;3896;48.758;8.888;2023-05-14T10:37:44;6.43;;;5.47;;
7707;SDS011;3896;48.758;8.888;2023-05-14T10:40:11;6.00;;;5.40;;
7707;SDS011;3896;48.758;8.888;2023-05-14T10:42:38;5.37;;;4.87;;
7707;SDS011;3896;48.758;8.888;2023-05-14T10:45:05;4.93;;;4.30;;
7707;SDS011;3896;48.758;8.888;2023-05-14T10:47:33;5.60;;;5.00;;
7707;SDS011;3896;48.758;8.888;2023-05-14T10:50:01;4.87;;;4.30;;
7707;SDS011;3896;48.758;8.888;2023-05-14T10:52:29;4.10;;;3.70;;
7707;SDS011;3896;48.758;8.888;2023-05-14T10:54:57;4.23;;;3.83;;
7707;SDS011;3896;48.758;8.888;2023-05-14T10:57:24;4.33;;;3.93;;
7707;SDS011;3896;48.758;8.888;2023-05-14T10:59:53;3.67;;;3.20;;
7707;SDS011;3896;48.758;8.888;2023-05-14T11:05:05;4.20;;;3.80;;
7707;SDS011;3896;48.758;8.888;2023-05-14T11:07:36;5.63;;;4.70;;
7707;SDS011;3896;48.758;8.888;2023-05-14T11:10:04;4.30;;;3.90;;
7707;SDS011;3896;48.758;8.888;2023-05-14T11:12:31;4.70;;;3.97;;
7707;SDS011;3896;48.758;8.888;2023-05-14T11:14:59;4.70;;;4.17;;
7707;SDS011;3896;48.758;8.888;2023-05-14T11:17:26;3.90;;;3.60;;
7707;SDS011;3896;48.758;8.888;2023-05-14T11:19:53;4.27;;;3.87;;
7707;SDS011;3896;48.758;8.888;2023-05-14T11:22:19;4.30;;;3.90;;
7707;SDS011;3896;48.758;8.888;2023-05-14T11:24:45;4.47;;;4.07;;
7707;SDS011;3896;48.758;8.888;2023-05-14T11:27:11;3.60;;;3.30;;
7707;SDS011;3896;48.758;8.888;2023-05-14T11:29:37;4.47;;;4.07;;
7707;SDS011;3896;48.758;8.888;2023-05-14T11:32:04;4.30;;;3.87;;
7707;SDS011;3896;48.758;8.888;2023-05-14T11:34:32;4.57;;;3.97;;
7707;SDS011;3896;48.758;8.888;2023-05-14T11:37:04;4.00;;;3.60;;
7707;SDS011;3896;48.758;8.888;2023-05-14T11:39:34;4.53;;;4.13;;
7707;SDS011;3896;48.758;8.888;2023-05-14T11:42:01;4.70;;;3.90;;
7707;SDS011;3896;48.758;8.888;2023-05-14T11:44:28;4.27;;;3.90;;
7707;SDS011;3896;48.758;8.888;2023-05-14T11:46:55;5.23;;;4.73;;
7707;SDS011;3896;48.758;8.888;2023-05-14T11:49:25;4.13;;;3.73;;
7707;SDS011;3896;48.758;8.888;2023-05-14T11:51:59;4.00;;;3.70;;
7707;SDS011;3896;48.758;8.888;2023-05-14T11:54:27;4.70;;;4.07;;
7707;SDS011;3896;48.758;8.888;2023-05-14T11:56:53;4.67;;;4.27;;
7707;SDS011;3896;48.758;8.888;2023-05-14T11:59:20;4.13;;;3.73;;
7707;SDS011;3896;48.758;8.888;2023-05-14T12:01:50;4.80;;;4.40;;
7707;SDS011;3896;48.758;8.888;2023-05-14T12:04:18;4.73;;;4.33;;
7707;SDS011;3896;48.758;8.888;2023-05-14T12:06:47;4.20;;;3.80;;
7707;SDS011;3896;48.758;8.888;2023-05-14T12:09:15;3.50;;;3.20;;
7707;SDS011;3896;48.758;8.888;2023-05-14T12:11:42;3.30;;;3.00;;
7707;SDS011;3896;48.758;8.888;2023-05-14T12:14:09;3.70;;;3.40;;
7707;SDS011;3896;48.758;8.888;2023-05-14T12:16:38;4.00;;;3.63;;
7707;SDS011;3896;48.758;8.888;2023-05-14T12:19:04;4.20;;;3.90;;
7707;SDS011;3896;48.758;8.888;2023-05-14T12:21:33;3.60;;;3.30;;
7707;SDS011;3896;48.758;8.888;2023-05-14T12:23:58;4.40;;;4.00;;
7707;SDS011;3896;48.758;8.888;2023-05-14T12:26:25;3.83;;;3.53;;
7707;SDS011;3896;48.758;8.888;2023-05-14T12:29:00;3.90;;;3.60;;
7707;SDS011;3896;48.758;8.888;2023-05-14T12:31:28;4.60;;;4.20;;
7707;SDS011;3896;48.758;8.888;2023-05-14T12:33:54;3.87;;;3.53;;
7707;SDS011;3896;48.758;8.888;2023-05-14T12:36:19;3.50;;;3.20;;
7707;SDS011;3896;48.758;8.888;2023-05-14T12:38:45;2.97;;;2.77;;
7707;SDS011;3896;48.758;8.888;2023-05-14T12:41:11;3.50;;;3.20;;
7707;SDS011;3896;48.758;8.888;2023-05-14T12:43:36;4.20;;;3.80;;
7707;SDS011;3896;48.758;8.888;2023-05-14T12:46:02;3.87;;;3.57;;
7707;SDS011;3896;48.758;8.888;2023-05-14T12:48:27;3.40;;;3.20;;
7707;SDS011;3896;48.758;8.888;2023-05-14T12:50:53;10.57;;;3.73;;
7707;SDS011;3896;48.758;8.888;2023-05-14T12:53:18;3.67;;;3.37;;
7707;SDS011;3896;48.758;8.888;2023-05-14T12:55:44;4.53;;;3.87;;
7707;SDS011;3896;48.758;8.888;2023-05-14T12:58:09;3.93;;;3.53;;
7707;SDS011;3896;48.758;8.888;2023-05-14T13:00:35;3.67;;;3.37;;
7707;SDS011;3896;48.758;8.888;2023-05-14T13:03:00;3.90;;;3.60;;
7707;SDS011;3896;48.758;8.888;2023-05-14T13:05:26;3.70;;;3.30;;
7707;SDS011;3896;48.758;8.888;2023-05-14T13:07:51;4.27;;;3.87;;
7707;SDS011;3896;48.758;8.888;2023-05-14T13:10:17;5.23;;;3.40;;
7707;SDS011;3896;48.758;8.888;2023-05-14T13:12:43;4.00;;;3.70;;
7707;SDS011;3896;48.758;8.888;2023-05-14T13:15:09;4.50;;;3.47;;
7707;SDS011;3896;48.758;8.888;2023-05-14T13:17:35;6.23;;;3.47;;
7707;SDS011;3896;48.758;8.888;2023-05-14T13:20:01;3.40;;;3.10;;
7707;SDS011;3896;48.758;8.888;2023-05-14T13:22:26;4.60;;;3.57;;
7707;SDS011;3896;48.758;8.888;2023-05-14T13:24:52;3.60;;;3.30;;
7707;SDS011;3896;48.758;8.888;2023-05-14T13:27:18;3.20;;;3.00;;
7707;SDS011;3896;48.758;8.888;2023-05-14T13:29:43;4.50;;;4.10;;
7707;SDS011;3896;48.758;8.888;2023-05-14T13:32:09;3.97;;;3.23;;
7707;SDS011;3896;48.758;8.888;2023-05-14T13:34:34;3.80;;;3.50;;
7707;SDS011;3896;48.758;8.888;2023-05-14T13:37:00;5.37;;;3.53;;
7707;SDS011;3896;48.758;8.888;2023-05-14T13:39:25;3.73;;;3.43;;
7707;SDS011;3896;48.758;8.888;2023-05-14T13:41:53;3.93;;;3.50;;
7707;SDS011;3896;48.758;8.888;2023-05-14T13:44:20;3.13;;;2.93;;
7707;SDS011;3896;48.758;8.888;2023-05-14T13:46:46;3.47;;;2.83;;
7707;SDS011;3896;48.758;8.888;2023-05-14T13:49:11;3.77;;;3.47;;
7707;SDS011;3896;48.758;8.888;2023-05-14T13:51:37;4.67;;;3.10;;
7707;SDS011;3896;48.758;8.888;2023-05-14T13:54:03;2.83;;;2.63;;
7707;SDS011;3896;48.758;8.888;2023-05-14T13:56:28;3.37;;;3.13;;
7707;SDS011;3896;48.758;8.888;2023-05-14T13:58:54;3.07;;;2.87;;
7707;SDS011;3896;48.758;8.888;2023-05-14T14:01:20;2.93;;;2.67;;
7707;SDS011;3896;48.758;8.888;2023-05-14T14:03:47;2.90;;;2.70;;
7707;SDS011;3896;48.758;8.888;2023-05-14T14:06:12;2.93;;;2.73;;
7707;SDS011;3896;48.758;8.888;2023-05-14T14:08:38;4.07;;;3.43;;
7707;SDS011;3896;48.758;8.888;2023-05-14T14:11:03;2.47;;;2.33;;
7707;SDS011;3896;48.758;8.888;2023-05-14T14:13:29;2.83;;;2.63;;
7707;SDS011;3896;48.758;8.888;2023-05-14T14:15:55;3.03;;;2.63;;
7707;SDS011;3896;48.758;8.888;2023-05-14T14:18:20;3.50;;;3.20;;
7707;SDS011;3896;48.758;8.888;2023-05-14T14:20:46;3.30;;;3.00;;
7707;SDS011;3896;48.758;8.888;2023-05-14T14:23:12;3.17;;;2.83;;
7707;SDS011;3896;48.758;8.888;2023-05-14T14:25:37;3.00;;;2.80;;
7707;SDS011;3896;48.758;8.888;2023-05-14T14:28:03;3.60;;;3.30;;
7707;SDS011;3896;48.758;8.888;2023-05-14T14:30:28;3.40;;;3.20;;
7707;SDS011;3896;48.758;8.888;2023-05-14T14:32:54;3.43;;;3.13;;
7707;SDS011;3896;48.758;8.888;2023-05-14T14:35:19;3.73;;;3.30;;
7707;SDS011;3896;48.758;8.888;2023-05-14T14:37:45;4.07;;;3.00;;
7707;SDS011;3896;48.758;8.888;2023-05-14T14:40:15;3.00;;;2.77;;
7707;SDS011;3896;48.758;8.888;2023-05-14T14:42:41;3.47;;;3.17;;
7707;SDS011;3896;48.758;8.888;2023-05-14T14:45:07;3.10;;;2.80;;
7707;SDS011;3896;48.758;8.888;2023-05-14T14:47:33;2.43;;;2.33;;
7707;SDS011;3896;48.758;8.888;2023-05-14T14:50:00;2.27;;;2.07;;
7707;SDS011;3896;48.758;8.888;2023-05-14T14:52:26;2.73;;;2.53;;
7707;SDS011;3896;48.758;8.888;2023-05-14T14:54:52;4.10;;;2.60;;
7707;SDS011;3896;48.758;8.888;2023-05-14T14:57:18;3.33;;;3.03;;
7707;SDS011;3896;48.758;8.888;2023-05-14T14:59:44;4.83;;;2.77;;
7707;SDS011;3896;48.758;8.888;2023-05-14T15:02:10;3.83;;;3.00;;
7707;SDS011;3896;48.758;8.888;2023-05-14T15:04:36;2.90;;;2.57;;
7707;SDS011;3896;48.758;8.888;2023-05-14T15:07:02;3.17;;;2.87;;
7707;SDS011;3896;48.758;8.888;2023-05-14T15:09:28;2.57;;;2.37;;
7707;SDS011;3896;48.758;8.888;2023-05-14T15:11:54;2.80;;;2.60;;
7707;SDS011;3896;48.758;8.888;2023-05-14T15:14:20;3.50;;;3.20;;
7707;SDS011;3896;48.758;8.888;2023-05-14T15:16:46;4.27;;;2.53;;
7707;SDS011;3896;48.758;8.888;2023-05-14T15:19:12;2.90;;;2.70;;
7707;SDS011;3896;48.758;8.888;2023-05-14T15:21:37;5.07;;;3.03;;
7707;SDS011;3896;48.758;8.888;2023-05-14T15:24:03;2.50;;;2.30;;